sensor_id;sensor_type;location;lat;lon;timestamp;P1;durP1;ratioP1;P2;durP2;ratioP2
85160;SDS011;75526;43.726;4.346;2024-02-23T00:02:20;2.45;;;0.80;;
85160;SDS011;75526;43.726;4.346;2024-02-23T00:04:46;3.80;;;1.20;;
85160;SDS011;75526;43.726;4.346;2024-02-23T00:07:12;4.63;;;1.00;;
85160;SDS011;75526;43.726;4.346;2024-02-23T00:09:38;4.45;;;1.23;;
85160;SDS011;75526;43.726;4.346;2024-02-23T00:12:04;5.57;;;1.00;;
85160;SDS011;75526;43.726;4.346;2024-02-23T00:14:30;6.10;;;1.15;;
85160;SDS011;75526;43.726;4.346;2024-02-23T00:16:56;6.70;;;1.10;;
85160;SDS011;75526;43.726;4.346;2024-02-23T00:19:23;4.70;;;0.90;;
85160;SDS011;75526;43.726;4.346;2024-02-23T00:21:50;4.47;;;0.98;;
85160;SDS011;75526;43.726;4.346;2024-02-23T00:24:17;7.17;;;1.20;;
85160;SDS011;75526;43.726;4.346;2024-02-23T00:26:45;4.85;;;0.90;;
85160;SDS011;75526;43.726;4.346;2024-02-23T00:29:12;4.47;;;1.00;;
85160;SDS011;75526;43.726;4.346;2024-02-23T00:31:38;3.72;;;1.00;;
85160;SDS011;75526;43.726;4.346;2024-02-23T00:34:06;5.30;;;1.00;;
85160;SDS011;75526;43.726;4.346;2024-02-23T00:36:35;3.17;;;0.90;;
85160;SDS011;75526;43.726;4.346;2024-02-23T00:39:02;4.85;;;0.90;;
85160;SDS011;75526;43.726;4.346;2024-02-23T00:41:28;3.92;;;0.90;;
85160;SDS011;75526;43.726;4.346;2024-02-23T00:43:54;5.90;;;1.10;;
85160;SDS011;75526;43.726;4.346;2024-02-23T00:46:20;4.10;;;0.90;;
85160;SDS011;75526;43.726;4.346;2024-02-23T00:48:46;4.37;;;1.00;;
85160;SDS011;75526;43.726;4.346;2024-02-23T00:51:12;3.70;;;0.80;;
85160;SDS011;75526;43.726;4.346;2024-02-23T00:53:38;4.13;;;0.85;;
85160;SDS011;75526;43.726;4.346;2024-02-23T00:56:04;4.97;;;0.80;;
85160;SDS011;75526;43.726;4.346;2024-02-23T00:58:30;5.38;;;0.90;;
85160;SDS011;75526;43.726;4.346;2024-02-23T01:00:56;3.67;;;0.90;;
85160;SDS011;75526;43.726;4.346;2024-02-23T01:03:22;4.10;;;1.02;;
85160;SDS011;75526;43.726;4.346;2024-02-23T01:05:48;4.10;;;0.90;;
85160;SDS011;75526;43.726;4.346;2024-02-23T01:08:14;3.55;;;0.70;;
85160;SDS011;75526;43.726;4.346;2024-02-23T01:10:40;6.63;;;1.00;;
85160;SDS011;75526;43.726;4.346;2024-02-23T01:13:06;5.87;;;1.20;;
85160;SDS011;75526;43.726;4.346;2024-02-23T01:15:33;4.15;;;0.90;;
85160;SDS011;75526;43.726;4.346;2024-02-23T01:17:59;4.07;;;0.80;;
85160;SDS011;75526;43.726;4.346;2024-02-23T01:20:25;3.33;;;0.90;;
85160;SDS011;75526;43.726;4.346;2024-02-23T01:22:51;4.32;;;0.80;;
85160;SDS011;75526;43.726;4.346;2024-02-23T01:25:17;3.83;;;0.73;;
85160;SDS011;75526;43.726;4.346;2024-02-23T01:27:44;6.88;;;1.10;;
85160;SDS011;75526;43.726;4.346;2024-02-23T01:30:10;5.57;;;0.90;;
85160;SDS011;75526;43.726;4.346;2024-02-23T01:32:36;4.68;;;0.90;;
85160;SDS011;75526;43.726;4.346;2024-02-23T01:35:04;4.78;;;0.90;;
85160;SDS011;75526;43.726;4.346;2024-02-23T01:37:30;6.60;;;1.00;;
85160;SDS011;75526;43.726;4.346;2024-02-23T01:39:57;5.68;;;0.90;;
85160;SDS011;75526;43.726;4.346;2024-02-23T01:42:24;3.65;;;0.90;;
85160;SDS011;75526;43.726;4.346;2024-02-23T01:44:51;4.30;;;1.00;;
85160;SDS011;75526;43.726;4.346;2024-02-23T01:47:17;4.25;;;0.70;;
85160;SDS011;75526;43.726;4.346;2024-02-23T01:49:43;5.50;;;0.87;;
85160;SDS011;75526;43.726;4.346;2024-02-23T01:52:10;4.03;;;0.90;;
85160;SDS011;75526;43.726;4.346;2024-02-23T01:54:37;4.20;;;0.90;;
85160;SDS011;75526;43.726;4.346;2024-02-23T01:57:03;5.20;;;0.85;;
85160;SDS011;75526;43.726;4.346;2024-02-23T01:59:30;3.72;;;0.80;;
85160;SDS011;75526;43.726;4.346;2024-02-23T02:01:56;5.63;;;1.00;;
85160;SDS011;75526;43.726;4.346;2024-02-23T02:04:22;4.63;;;1.00;;
85160;SDS011;75526;43.726;4.346;2024-02-23T02:06:48;3.75;;;0.80;;
85160;SDS011;75526;43.726;4.346;2024-02-23T02:09:14;4.55;;;1.15;;
85160;SDS011;75526;43.726;4.346;2024-02-23T02:11:46;4.25;;;0.90;;
85160;SDS011;75526;43.726;4.346;2024-02-23T02:14:13;4.43;;;0.90;;
85160;SDS011;75526;43.726;4.346;2024-02-23T02:16:39;4.78;;;0.80;;
85160;SDS011;75526;43.726;4.346;2024-02-23T02:19:05;6.63;;;1.20;;
85160;SDS011;75526;43.726;4.346;2024-02-23T02:21:32;4.07;;;1.00;;
85160;SDS011;75526;43.726;4.346;2024-02-23T02:23:58;6.75;;;1.10;;
85160;SDS011;75526;43.726;4.346;2024-02-23T02:26:24;4.63;;;0.80;;
85160;SDS011;75526;43.726;4.346;2024-02-23T02:28:50;5.18;;;0.90;;
85160;SDS011;75526;43.726;4.346;2024-02-23T02:31:17;5.10;;;0.80;;
85160;SDS011;75526;43.726;4.346;2024-02-23T02:33:43;5.55;;;0.90;;
85160;SDS011;75526;43.726;4.346;2024-02-23T02:36:09;6.05;;;1.08;;
85160;SDS011;75526;43.726;4.346;2024-02-23T02:38:36;4.87;;;1.07;;
85160;SDS011;75526;43.726;4.346;2024-02-23T02:41:02;4.32;;;0.90;;
85160;SDS011;75526;43.726;4.346;2024-02-23T02:43:30;4.22;;;0.80;;
85160;SDS011;75526;43.726;4.346;2024-02-23T02:45:56;5.53;;;0.98;;
85160;SDS011;75526;43.726;4.346;2024-02-23T02:48:22;5.43;;;1.13;;
85160;SDS011;75526;43.726;4.346;2024-02-23T02:50:49;5.10;;;1.10;;
85160;SDS011;75526;43.726;4.346;2024-02-23T02:53:15;4.43;;;0.80;;
85160;SDS011;75526;43.726;4.346;2024-02-23T02:55:41;5.68;;;1.00;;
85160;SDS011;75526;43.726;4.346;2024-02-23T02:58:08;4.88;;;0.80;;
85160;SDS011;75526;43.726;4.346;2024-02-23T03:00:34;4.75;;;0.88;;
85160;SDS011;75526;43.726;4.346;2024-02-23T03:03:00;6.97;;;1.00;;
85160;SDS011;75526;43.726;4.346;2024-02-23T03:05:26;5.38;;;1.08;;
85160;SDS011;75526;43.726;4.346;2024-02-23T03:07:52;4.03;;;0.80;;
85160;SDS011;75526;43.726;4.346;2024-02-23T03:10:18;4.75;;;1.25;;
85160;SDS011;75526;43.726;4.346;2024-02-23T03:12:44;4.80;;;0.90;;
85160;SDS011;75526;43.726;4.346;2024-02-23T03:15:10;4.90;;;1.00;;
85160;SDS011;75526;43.726;4.346;2024-02-23T03:17:37;4.72;;;0.90;;
85160;SDS011;75526;43.726;4.346;2024-02-23T03:20:03;3.85;;;0.88;;
85160;SDS011;75526;43.726;4.346;2024-02-23T03:22:36;4.32;;;0.80;;
85160;SDS011;75526;43.726;4.346;2024-02-23T03:25:03;3.80;;;0.80;;
85160;SDS011;75526;43.726;4.346;2024-02-23T03:27:33;3.60;;;0.97;;
85160;SDS011;75526;43.726;4.346;2024-02-23T03:30:00;5.22;;;0.90;;
85160;SDS011;75526;43.726;4.346;2024-02-23T03:32:26;3.97;;;0.75;;
85160;SDS011;75526;43.726;4.346;2024-02-23T03:34:52;5.22;;;0.90;;
85160;SDS011;75526;43.726;4.346;2024-02-23T03:37:18;6.38;;;0.95;;
85160;SDS011;75526;43.726;4.346;2024-02-23T03:39:44;3.40;;;0.93;;
85160;SDS011;75526;43.726;4.346;2024-02-23T03:42:10;5.28;;;0.80;;
85160;SDS011;75526;43.726;4.346;2024-02-23T03:44:36;3.53;;;0.70;;
85160;SDS011;75526;43.726;4.346;2024-02-23T03:47:02;3.72;;;0.90;;
85160;SDS011;75526;43.726;4.346;2024-02-23T03:49:28;3.78;;;0.80;;
85160;SDS011;75526;43.726;4.346;2024-02-23T03:51:54;3.87;;;0.77;;
85160;SDS011;75526;43.726;4.346;2024-02-23T03:54:20;2.97;;;0.77;;
85160;SDS011;75526;43.726;4.346;2024-02-23T03:56:46;3.58;;;0.70;;
85160;SDS011;75526;43.726;4.346;2024-02-23T03:59:12;5.20;;;0.90;;
85160;SDS011;75526;43.726;4.346;2024-02-23T04:01:39;3.45;;;0.60;;
85160;SDS011;75526;43.726;4.346;2024-02-23T04:04:05;4.10;;;0.80;;
85160;SDS011;75526;43.726;4.346;2024-02-23T04:06:32;5.72;;;0.95;;
85160;SDS011;75526;43.726;4.346;2024-02-23T04:08:59;4.85;;;0.80;;
85160;SDS011;75526;43.726;4.346;2024-02-23T04:11:25;4.20;;;0.70;;
85160;SDS011;75526;43.726;4.346;2024-02-23T04:13:51;3.80;;;0.70;;
85160;SDS011;75526;43.726;4.346;2024-02-23T04:16:17;4.77;;;0.90;;
85160;SDS011;75526;43.726;4.346;2024-02-23T04:18:43;4.72;;;0.80;;
85160;SDS011;75526;43.726;4.346;2024-02-23T04:21:09;4.65;;;1.05;;
85160;SDS011;75526;43.726;4.346;2024-02-23T04:23:35;4.78;;;0.98;;
85160;SDS011;75526;43.726;4.346;2024-02-23T04:26:01;5.25;;;0.80;;
85160;SDS011;75526;43.726;4.346;2024-02-23T04:28:27;6.10;;;1.00;;
85160;SDS011;75526;43.726;4.346;2024-02-23T04:30:56;3.47;;;0.70;;
85160;SDS011;75526;43.726;4.346;2024-02-23T04:33:22;4.47;;;0.90;;
85160;SDS011;75526;43.726;4.346;2024-02-23T04:35:48;4.93;;;0.90;;
85160;SDS011;75526;43.726;4.346;2024-02-23T04:38:14;3.85;;;0.80;;
85160;SDS011;75526;43.726;4.346;2024-02-23T04:40:40;4.63;;;0.80;;
85160;SDS011;75526;43.726;4.346;2024-02-23T04:43:06;2.85;;;0.70;;
85160;SDS011;75526;43.726;4.346;2024-02-23T04:45:32;2.85;;;0.80;;
85160;SDS011;75526;43.726;4.346;2024-02-23T04:47:58;4.10;;;0.90;;
85160;SDS011;75526;43.726;4.346;2024-02-23T04:50:24;4.97;;;0.90;;
85160;SDS011;75526;43.726;4.346;2024-02-23T04:52:50;5.30;;;0.90;;
85160;SDS011;75526;43.726;4.346;2024-02-23T04:55:16;4.47;;;0.80;;
85160;SDS011;75526;43.726;4.346;2024-02-23T04:57:42;7.07;;;0.98;;
85160;SDS011;75526;43.726;4.346;2024-02-23T05:00:08;5.57;;;1.00;;
85160;SDS011;75526;43.726;4.346;2024-02-23T05:02:34;6.47;;;0.85;;
85160;SDS011;75526;43.726;4.346;2024-02-23T05:05:03;6.23;;;1.00;;
85160;SDS011;75526;43.726;4.346;2024-02-23T05:07:33;5.20;;;1.17;;
85160;SDS011;75526;43.726;4.346;2024-02-23T05:09:59;4.75;;;0.98;;
85160;SDS011;75526;43.726;4.346;2024-02-23T05:12:25;4.38;;;0.90;;
85160;SDS011;75526;43.726;4.346;2024-02-23T05:14:51;3.05;;;0.60;;
85160;SDS011;75526;43.726;4.346;2024-02-23T05:17:17;4.17;;;0.90;;
85160;SDS011;75526;43.726;4.346;2024-02-23T05:19:43;4.90;;;0.80;;
85160;SDS011;75526;43.726;4.346;2024-02-23T05:22:11;5.00;;;0.93;;
85160;SDS011;75526;43.726;4.346;2024-02-23T05:24:37;4.22;;;1.10;;
85160;SDS011;75526;43.726;4.346;2024-02-23T05:27:03;3.60;;;1.00;;
85160;SDS011;75526;43.726;4.346;2024-02-23T05:29:29;6.10;;;0.90;;
85160;SDS011;75526;43.726;4.346;2024-02-23T05:31:55;3.17;;;0.90;;
85160;SDS011;75526;43.726;4.346;2024-02-23T05:34:21;3.97;;;0.73;;
85160;SDS011;75526;43.726;4.346;2024-02-23T05:36:47;3.67;;;0.80;;
85160;SDS011;75526;43.726;4.346;2024-02-23T05:39:15;4.35;;;0.82;;
85160;SDS011;75526;43.726;4.346;2024-02-23T05:41:42;5.30;;;0.80;;
85160;SDS011;75526;43.726;4.346;2024-02-23T05:44:08;5.03;;;0.80;;
85160;SDS011;75526;43.726;4.346;2024-02-23T05:46:35;4.25;;;1.10;;
85160;SDS011;75526;43.726;4.346;2024-02-23T05:49:02;3.67;;;0.80;;
85160;SDS011;75526;43.726;4.346;2024-02-23T05:51:29;5.65;;;1.08;;
85160;SDS011;75526;43.726;4.346;2024-02-23T05:53:55;6.30;;;1.30;;
85160;SDS011;75526;43.726;4.346;2024-02-23T05:56:22;4.13;;;0.90;;
85160;SDS011;75526;43.726;4.346;2024-02-23T05:58:51;4.60;;;1.27;;
85160;SDS011;75526;43.726;4.346;2024-02-23T06:01:17;6.43;;;2.45;;
85160;SDS011;75526;43.726;4.346;2024-02-23T06:03:44;4.85;;;1.80;;
85160;SDS011;75526;43.726;4.346;2024-02-23T06:06:10;2.70;;;1.00;;
85160;SDS011;75526;43.726;4.346;2024-02-23T06:08:36;4.38;;;1.20;;
85160;SDS011;75526;43.726;4.346;2024-02-23T06:11:03;4.55;;;1.00;;
85160;SDS011;75526;43.726;4.346;2024-02-23T06:13:29;4.72;;;0.90;;
85160;SDS011;75526;43.726;4.346;2024-02-23T06:15:55;5.68;;;1.73;;
85160;SDS011;75526;43.726;4.346;2024-02-23T06:18:21;4.63;;;1.30;;
85160;SDS011;75526;43.726;4.346;2024-02-23T06:20:48;4.88;;;0.90;;
85160;SDS011;75526;43.726;4.346;2024-02-23T06:23:15;4.75;;;0.90;;
85160;SDS011;75526;43.726;4.346;2024-02-23T06:25:41;5.20;;;1.63;;
85160;SDS011;75526;43.726;4.346;2024-02-23T06:28:08;3.67;;;0.85;;
85160;SDS011;75526;43.726;4.346;2024-02-23T06:30:35;5.23;;;1.10;;
85160;SDS011;75526;43.726;4.346;2024-02-23T06:33:01;6.13;;;1.15;;
85160;SDS011;75526;43.726;4.346;2024-02-23T06:35:29;8.57;;;2.80;;
85160;SDS011;75526;43.726;4.346;2024-02-23T06:37:56;6.32;;;2.55;;
85160;SDS011;75526;43.726;4.346;2024-02-23T06:40:22;6.03;;;2.03;;
85160;SDS011;75526;43.726;4.346;2024-02-23T06:42:48;6.00;;;2.27;;
85160;SDS011;75526;43.726;4.346;2024-02-23T06:45:15;5.30;;;2.00;;
85160;SDS011;75526;43.726;4.346;2024-02-23T06:47:44;3.95;;;1.83;;
85160;SDS011;75526;43.726;4.346;2024-02-23T06:50:10;6.25;;;1.80;;
85160;SDS011;75526;43.726;4.346;2024-02-23T06:52:36;5.40;;;1.60;;
85160;SDS011;75526;43.726;4.346;2024-02-23T06:55:02;7.63;;;2.30;;
85160;SDS011;75526;43.726;4.346;2024-02-23T06:57:28;7.47;;;3.00;;
85160;SDS011;75526;43.726;4.346;2024-02-23T06:59:56;6.63;;;2.75;;
85160;SDS011;75526;43.726;4.346;2024-02-23T07:02:22;5.75;;;2.70;;
85160;SDS011;75526;43.726;4.346;2024-02-23T07:04:48;7.15;;;1.98;;
85160;SDS011;75526;43.726;4.346;2024-02-23T07:07:14;7.63;;;3.27;;
85160;SDS011;75526;43.726;4.346;2024-02-23T07:09:40;8.32;;;4.38;;
85160;SDS011;75526;43.726;4.346;2024-02-23T07:12:06;7.15;;;3.00;;
85160;SDS011;75526;43.726;4.346;2024-02-23T07:14:32;7.95;;;1.60;;
85160;SDS011;75526;43.726;4.346;2024-02-23T07:16:58;3.83;;;1.10;;
85160;SDS011;75526;43.726;4.346;2024-02-23T07:19:24;4.03;;;1.00;;
85160;SDS011;75526;43.726;4.346;2024-02-23T07:21:50;4.13;;;1.20;;
85160;SDS011;75526;43.726;4.346;2024-02-23T07:24:16;4.78;;;1.00;;
85160;SDS011;75526;43.726;4.346;2024-02-23T07:26:42;12.73;;;5.50;;
85160;SDS011;75526;43.726;4.346;2024-02-23T07:29:08;7.57;;;3.20;;
85160;SDS011;75526;43.726;4.346;2024-02-23T07:31:34;7.93;;;3.03;;
85160;SDS011;75526;43.726;4.346;2024-02-23T07:34:00;7.93;;;2.92;;
85160;SDS011;75526;43.726;4.346;2024-02-23T07:36:27;5.72;;;2.33;;
85160;SDS011;75526;43.726;4.346;2024-02-23T07:38:53;5.55;;;1.50;;
85160;SDS011;75526;43.726;4.346;2024-02-23T07:41:20;5.70;;;1.55;;
85160;SDS011;75526;43.726;4.346;2024-02-23T07:43:46;7.03;;;1.40;;
85160;SDS011;75526;43.726;4.346;2024-02-23T07:46:12;4.75;;;1.52;;
85160;SDS011;75526;43.726;4.346;2024-02-23T07:48:38;6.20;;;1.40;;
85160;SDS011;75526;43.726;4.346;2024-02-23T07:51:04;6.97;;;1.48;;
85160;SDS011;75526;43.726;4.346;2024-02-23T07:53:31;7.13;;;1.38;;
85160;SDS011;75526;43.726;4.346;2024-02-23T07:55:57;5.33;;;1.20;;
85160;SDS011;75526;43.726;4.346;2024-02-23T07:58:24;8.88;;;1.48;;
85160;SDS011;75526;43.726;4.346;2024-02-23T08:00:51;6.60;;;1.70;;
85160;SDS011;75526;43.726;4.346;2024-02-23T08:03:18;7.50;;;1.67;;
85160;SDS011;75526;43.726;4.346;2024-02-23T08:05:44;6.22;;;1.50;;
85160;SDS011;75526;43.726;4.346;2024-02-23T08:08:10;4.93;;;1.50;;
85160;SDS011;75526;43.726;4.346;2024-02-23T08:10:36;6.50;;;1.65;;
85160;SDS011;75526;43.726;4.346;2024-02-23T08:13:03;9.70;;;3.40;;
85160;SDS011;75526;43.726;4.346;2024-02-23T08:15:29;8.85;;;3.45;;
85160;SDS011;75526;43.726;4.346;2024-02-23T08:17:55;7.57;;;2.80;;
85160;SDS011;75526;43.726;4.346;2024-02-23T08:20:21;7.77;;;3.00;;
85160;SDS011;75526;43.726;4.346;2024-02-23T08:22:48;7.25;;;3.20;;
85160;SDS011;75526;43.726;4.346;2024-02-23T08:25:16;10.98;;;3.85;;
85160;SDS011;75526;43.726;4.346;2024-02-23T08:27:43;8.73;;;3.80;;
85160;SDS011;75526;43.726;4.346;2024-02-23T08:30:09;9.52;;;3.40;;
85160;SDS011;75526;43.726;4.346;2024-02-23T08:32:38;7.67;;;2.77;;
85160;SDS011;75526;43.726;4.346;2024-02-23T08:35:04;8.05;;;2.80;;
85160;SDS011;75526;43.726;4.346;2024-02-23T08:37:30;7.60;;;2.42;;
85160;SDS011;75526;43.726;4.346;2024-02-23T08:39:56;7.25;;;2.45;;
85160;SDS011;75526;43.726;4.346;2024-02-23T08:42:22;6.63;;;2.42;;
85160;SDS011;75526;43.726;4.346;2024-02-23T08:44:48;10.00;;;2.70;;
85160;SDS011;75526;43.726;4.346;2024-02-23T08:47:14;6.25;;;1.92;;
85160;SDS011;75526;43.726;4.346;2024-02-23T08:49:40;8.00;;;1.70;;
85160;SDS011;75526;43.726;4.346;2024-02-23T08:52:06;7.10;;;1.80;;
85160;SDS011;75526;43.726;4.346;2024-02-23T08:54:32;5.22;;;1.60;;
85160;SDS011;75526;43.726;4.346;2024-02-23T08:56:58;6.63;;;1.80;;
85160;SDS011;75526;43.726;4.346;2024-02-23T08:59:24;4.30;;;1.50;;
85160;SDS011;75526;43.726;4.346;2024-02-23T09:01:50;7.00;;;1.40;;
85160;SDS011;75526;43.726;4.346;2024-02-23T09:04:17;6.60;;;1.30;;
85160;SDS011;75526;43.726;4.346;2024-02-23T09:06:43;10.55;;;1.52;;
85160;SDS011;75526;43.726;4.346;2024-02-23T09:09:09;3.13;;;1.10;;
85160;SDS011;75526;43.726;4.346;2024-02-23T09:11:35;5.70;;;1.52;;
85160;SDS011;75526;43.726;4.346;2024-02-23T09:14:02;7.28;;;1.50;;
85160;SDS011;75526;43.726;4.346;2024-02-23T09:16:28;6.78;;;1.60;;
85160;SDS011;75526;43.726;4.346;2024-02-23T09:18:54;7.15;;;1.98;;
85160;SDS011;75526;43.726;4.346;2024-02-23T09:21:20;7.07;;;1.77;;
85160;SDS011;75526;43.726;4.346;2024-02-23T09:23:46;4.90;;;1.60;;
85160;SDS011;75526;43.726;4.346;2024-02-23T09:26:12;6.75;;;2.25;;
85160;SDS011;75526;43.726;4.346;2024-02-23T09:28:38;6.80;;;1.70;;
85160;SDS011;75526;43.726;4.346;2024-02-23T09:31:06;4.72;;;1.27;;
85160;SDS011;75526;43.726;4.346;2024-02-23T09:33:33;5.33;;;1.53;;
85160;SDS011;75526;43.726;4.346;2024-02-23T09:35:59;5.28;;;1.30;;
85160;SDS011;75526;43.726;4.346;2024-02-23T09:38:25;5.95;;;1.35;;
85160;SDS011;75526;43.726;4.346;2024-02-23T09:40:52;5.97;;;1.42;;
85160;SDS011;75526;43.726;4.346;2024-02-23T09:43:19;4.68;;;1.30;;
85160;SDS011;75526;43.726;4.346;2024-02-23T09:45:52;4.17;;;1.20;;
85160;SDS011;75526;43.726;4.346;2024-02-23T09:48:19;5.03;;;1.10;;
85160;SDS011;75526;43.726;4.346;2024-02-23T09:50:47;4.82;;;1.30;;
85160;SDS011;75526;43.726;4.346;2024-02-23T09:53:13;6.45;;;1.70;;
85160;SDS011;75526;43.726;4.346;2024-02-23T09:55:39;3.05;;;0.80;;
85160;SDS011;75526;43.726;4.346;2024-02-23T09:58:06;2.83;;;0.77;;
85160;SDS011;75526;43.726;4.346;2024-02-23T10:00:34;2.17;;;0.50;;
85160;SDS011;75526;43.726;4.346;2024-02-23T10:03:00;3.20;;;0.70;;
85160;SDS011;75526;43.726;4.346;2024-02-23T10:05:29;3.03;;;0.60;;
85160;SDS011;75526;43.726;4.346;2024-02-23T10:07:56;3.35;;;0.55;;
85160;SDS011;75526;43.726;4.346;2024-02-23T10:10:45;2.50;;;0.50;;
85160;SDS011;75526;43.726;4.346;2024-02-23T10:13:09;3.35;;;0.88;;
85160;SDS011;75526;43.726;4.346;2024-02-23T10:15:35;2.95;;;0.70;;
85160;SDS011;75526;43.726;4.346;2024-02-23T10:18:02;2.25;;;0.60;;
85160;SDS011;75526;43.726;4.346;2024-02-23T10:20:28;2.42;;;0.60;;
85160;SDS011;75526;43.726;4.346;2024-02-23T10:22:54;2.17;;;0.60;;
85160;SDS011;75526;43.726;4.346;2024-02-23T10:25:20;2.30;;;0.63;;
85160;SDS011;75526;43.726;4.346;2024-02-23T10:27:46;1.90;;;0.60;;
85160;SDS011;75526;43.726;4.346;2024-02-23T10:30:12;2.92;;;0.50;;
85160;SDS011;75526;43.726;4.346;2024-02-23T10:32:40;2.35;;;0.60;;
85160;SDS011;75526;43.726;4.346;2024-02-23T10:35:10;2.37;;;0.60;;
85160;SDS011;75526;43.726;4.346;2024-02-23T10:37:36;1.98;;;0.60;;
85160;SDS011;75526;43.726;4.346;2024-02-23T10:40:02;1.85;;;0.50;;
85160;SDS011;75526;43.726;4.346;2024-02-23T10:42:30;2.25;;;0.50;;
85160;SDS011;75526;43.726;4.346;2024-02-23T10:44:58;1.20;;;0.50;;
85160;SDS011;75526;43.726;4.346;2024-02-23T10:47:26;1.87;;;0.50;;
85160;SDS011;75526;43.726;4.346;2024-02-23T10:49:52;2.28;;;0.57;;
85160;SDS011;75526;43.726;4.346;2024-02-23T10:52:18;2.45;;;0.50;;
85160;SDS011;75526;43.726;4.346;2024-02-23T10:54:45;2.42;;;0.55;;
85160;SDS011;75526;43.726;4.346;2024-02-23T10:57:12;2.30;;;0.50;;
85160;SDS011;75526;43.726;4.346;2024-02-23T10:59:39;1.70;;;0.40;;
85160;SDS011;75526;43.726;4.346;2024-02-23T11:02:05;0.80;;;0.30;;
85160;SDS011;75526;43.726;4.346;2024-02-23T11:04:31;1.60;;;0.50;;
85160;SDS011;75526;43.726;4.346;2024-02-23T11:06:59;2.45;;;0.38;;
85160;SDS011;75526;43.726;4.346;2024-02-23T11:09:29;2.42;;;0.60;;
85160;SDS011;75526;43.726;4.346;2024-02-23T11:11:58;2.10;;;0.70;;
85160;SDS011;75526;43.726;4.346;2024-02-23T11:14:31;1.90;;;0.60;;
85160;SDS011;75526;43.726;4.346;2024-02-23T11:17:00;1.67;;;0.60;;
85160;SDS011;75526;43.726;4.346;2024-02-23T11:19:33;2.60;;;0.70;;
85160;SDS011;75526;43.726;4.346;2024-02-23T11:22:00;2.00;;;0.80;;
85160;SDS011;75526;43.726;4.346;2024-02-23T11:24:29;2.20;;;0.67;;
85160;SDS011;75526;43.726;4.346;2024-02-23T11:26:56;1.65;;;0.60;;
85160;SDS011;75526;43.726;4.346;2024-02-23T11:29:22;2.10;;;0.77;;
85160;SDS011;75526;43.726;4.346;2024-02-23T11:31:55;1.92;;;0.80;;
85160;SDS011;75526;43.726;4.346;2024-02-23T11:34:26;2.85;;;0.70;;
85160;SDS011;75526;43.726;4.346;2024-02-23T11:36:52;2.10;;;0.63;;
85160;SDS011;75526;43.726;4.346;2024-02-23T11:39:19;1.80;;;0.70;;
85160;SDS011;75526;43.726;4.346;2024-02-23T11:41:47;2.10;;;0.70;;
85160;SDS011;75526;43.726;4.346;2024-02-23T11:44:14;1.52;;;0.60;;
85160;SDS011;75526;43.726;4.346;2024-02-23T11:46:42;2.58;;;0.60;;
85160;SDS011;75526;43.726;4.346;2024-02-23T11:49:08;2.63;;;0.70;;
85160;SDS011;75526;43.726;4.346;2024-02-23T11:51:34;2.72;;;0.50;;
85160;SDS011;75526;43.726;4.346;2024-02-23T11:54:01;1.70;;;0.50;;
85160;SDS011;75526;43.726;4.346;2024-02-23T11:56:28;3.58;;;0.70;;
85160;SDS011;75526;43.726;4.346;2024-02-23T11:58:55;1.60;;;0.47;;
85160;SDS011;75526;43.726;4.346;2024-02-23T12:01:21;2.13;;;0.50;;
85160;SDS011;75526;43.726;4.346;2024-02-23T12:03:47;1.70;;;0.60;;
85160;SDS011;75526;43.726;4.346;2024-02-23T12:06:16;2.33;;;0.60;;
85160;SDS011;75526;43.726;4.346;2024-02-23T12:08:42;2.42;;;0.70;;
85160;SDS011;75526;43.726;4.346;2024-02-23T12:11:10;1.30;;;0.50;;
85160;SDS011;75526;43.726;4.346;2024-02-23T12:13:39;2.07;;;0.50;;
85160;SDS011;75526;43.726;4.346;2024-02-23T12:16:07;2.30;;;0.60;;
85160;SDS011;75526;43.726;4.346;2024-02-23T12:18:34;1.88;;;0.40;;
85160;SDS011;75526;43.726;4.346;2024-02-23T12:21:01;2.25;;;0.68;;
85160;SDS011;75526;43.726;4.346;2024-02-23T12:23:48;2.30;;;0.60;;
85160;SDS011;75526;43.726;4.346;2024-02-23T12:26:14;2.47;;;0.67;;
85160;SDS011;75526;43.726;4.346;2024-02-23T12:28:40;1.65;;;0.50;;
85160;SDS011;75526;43.726;4.346;2024-02-23T12:31:07;1.70;;;0.60;;
85160;SDS011;75526;43.726;4.346;2024-02-23T12:33:38;1.60;;;0.50;;
85160;SDS011;75526;43.726;4.346;2024-02-23T12:36:10;1.63;;;0.55;;
85160;SDS011;75526;43.726;4.346;2024-02-23T12:38:36;2.03;;;0.57;;
85160;SDS011;75526;43.726;4.346;2024-02-23T12:41:02;1.70;;;0.50;;
85160;SDS011;75526;43.726;4.346;2024-02-23T12:43:28;1.88;;;0.57;;
85160;SDS011;75526;43.726;4.346;2024-02-23T12:45:55;2.40;;;0.60;;
85160;SDS011;75526;43.726;4.346;2024-02-23T12:48:21;2.55;;;0.80;;
85160;SDS011;75526;43.726;4.346;2024-02-23T12:50:48;2.47;;;0.60;;
85160;SDS011;75526;43.726;4.346;2024-02-23T12:53:30;2.47;;;0.70;;
85160;SDS011;75526;43.726;4.346;2024-02-23T12:56:02;2.03;;;0.68;;
85160;SDS011;75526;43.726;4.346;2024-02-23T12:58:29;2.65;;;0.90;;
85160;SDS011;75526;43.726;4.346;2024-02-23T13:00:55;3.50;;;0.80;;
85160;SDS011;75526;43.726;4.346;2024-02-23T13:03:22;2.00;;;0.90;;
85160;SDS011;75526;43.726;4.346;2024-02-23T13:05:49;2.50;;;0.90;;
85160;SDS011;75526;43.726;4.346;2024-02-23T13:08:15;1.95;;;0.57;;
85160;SDS011;75526;43.726;4.346;2024-02-23T13:10:43;1.92;;;0.60;;
85160;SDS011;75526;43.726;4.346;2024-02-23T13:13:09;1.73;;;0.70;;
85160;SDS011;75526;43.726;4.346;2024-02-23T13:15:35;2.33;;;0.70;;
85160;SDS011;75526;43.726;4.346;2024-02-23T13:18:04;1.92;;;0.68;;
85160;SDS011;75526;43.726;4.346;2024-02-23T13:20:30;1.73;;;0.70;;
85160;SDS011;75526;43.726;4.346;2024-02-23T13:22:57;1.50;;;0.50;;
85160;SDS011;75526;43.726;4.346;2024-02-23T13:25:22;2.92;;;0.82;;
85160;SDS011;75526;43.726;4.346;2024-02-23T13:27:49;2.30;;;0.80;;
85160;SDS011;75526;43.726;4.346;2024-02-23T13:30:15;2.72;;;0.80;;
85160;SDS011;75526;43.726;4.346;2024-02-23T13:32:41;1.92;;;0.60;;
85160;SDS011;75526;43.726;4.346;2024-02-23T13:35:07;1.75;;;0.60;;
85160;SDS011;75526;43.726;4.346;2024-02-23T13:37:33;1.50;;;0.60;;
85160;SDS011;75526;43.726;4.346;2024-02-23T13:40:00;2.10;;;0.60;;
85160;SDS011;75526;43.726;4.346;2024-02-23T13:42:26;2.45;;;0.50;;
85160;SDS011;75526;43.726;4.346;2024-02-23T13:44:52;1.85;;;0.80;;
85160;SDS011;75526;43.726;4.346;2024-02-23T13:47:18;2.20;;;0.50;;
85160;SDS011;75526;43.726;4.346;2024-02-23T13:49:44;1.73;;;0.60;;
85160;SDS011;75526;43.726;4.346;2024-02-23T13:52:10;2.23;;;0.60;;
85160;SDS011;75526;43.726;4.346;2024-02-23T13:54:36;2.70;;;0.70;;
85160;SDS011;75526;43.726;4.346;2024-02-23T13:57:02;3.45;;;0.70;;
85160;SDS011;75526;43.726;4.346;2024-02-23T13:59:28;2.22;;;0.70;;
85160;SDS011;75526;43.726;4.346;2024-02-23T14:01:54;2.28;;;0.80;;
85160;SDS011;75526;43.726;4.346;2024-02-23T14:04:20;1.87;;;0.70;;
85160;SDS011;75526;43.726;4.346;2024-02-23T14:06:46;2.22;;;0.70;;
85160;SDS011;75526;43.726;4.346;2024-02-23T14:09:12;1.50;;;0.50;;
85160;SDS011;75526;43.726;4.346;2024-02-23T14:11:38;1.30;;;0.50;;
85160;SDS011;75526;43.726;4.346;2024-02-23T14:14:05;1.83;;;0.70;;
85160;SDS011;75526;43.726;4.346;2024-02-23T14:16:32;1.60;;;0.70;;
85160;SDS011;75526;43.726;4.346;2024-02-23T14:18:59;6.22;;;0.90;;
85160;SDS011;75526;43.726;4.346;2024-02-23T14:21:25;2.38;;;0.60;;
85160;SDS011;75526;43.726;4.346;2024-02-23T14:23:52;1.70;;;0.60;;
85160;SDS011;75526;43.726;4.346;2024-02-23T14:26:18;1.77;;;0.60;;
85160;SDS011;75526;43.726;4.346;2024-02-23T14:28:44;1.53;;;0.60;;
85160;SDS011;75526;43.726;4.346;2024-02-23T14:31:10;1.73;;;0.70;;
85160;SDS011;75526;43.726;4.346;2024-02-23T14:33:36;1.38;;;0.50;;
85160;SDS011;75526;43.726;4.346;2024-02-23T14:36:02;2.50;;;0.65;;
85160;SDS011;75526;43.726;4.346;2024-02-23T14:38:28;1.73;;;0.60;;
85160;SDS011;75526;43.726;4.346;2024-02-23T14:40:54;2.80;;;0.93;;
85160;SDS011;75526;43.726;4.346;2024-02-23T14:43:20;2.13;;;0.80;;
85160;SDS011;75526;43.726;4.346;2024-02-23T14:45:46;1.83;;;0.80;;